Time;durP1;ratioP1;P1;durP2;ratioP2;P2;SDS_P1;SDS_P2;PMS_P1;PMS_P2;Temp;Humidity;BMP_temperature;BMP_pressure;BME280_temperature;BME280_humidity;BME280_pressure;Samples;Min_cycle;Max_cycle;Signal;HPM_P1;HPM_P2
2021/10/25 00:00:38;;;;;;;13.85;12.65;;;;;;;6.33;83.08;99282.31;5049033;27;102908;-61
2021/10/25 00:03:08;;;;;;;15.30;13.90;;;;;;;5.85;86.19;99280.13;5026678;27;103855;-60
2021/10/25 00:05:39;;;;;;;16.95;15.45;;;;;;;5.60;88.86;99290.81;5041633;27;104422;-61
2021/10/25 00:08:08;;;;;;;17.23;15.53;;;;;;;5.83;87.62;99284.56;5048392;27;103337;-61
2021/10/25 00:10:40;;;;;;;17.15;15.50;;;;;;;5.92;89.06;99278.97;5030245;27;103154;-61
2021/10/25 00:13:08;;;;;;;18.48;16.58;;;;;;;5.51;90.39;99274.59;5051905;27;102946;-61
2021/10/25 00:15:37;;;;;;;17.95;16.20;;;;;;;5.39;91.57;99278.59;5037673;27;103236;-61
2021/10/25 00:18:08;;;;;;;18.42;16.63;;;;;;;5.42;92.07;99275.84;5044819;27;103186;-60
2021/10/25 00:20:37;;;;;;;21.00;19.00;;;;;;;5.04;94.24;99281.84;5031427;27;103803;-60
2021/10/25 00:23:05;;;;;;;20.65;18.58;;;;;;;5.04;93.72;99274.84;5040626;27;103114;-60
2021/10/25 00:25:34;;;;;;;17.97;16.27;;;;;;;5.24;94.00;99282.75;5027127;27;103231;-61
2021/10/25 00:28:02;;;;;;;16.92;15.43;;;;;;;5.63;93.38;99280.19;5046243;27;103191;-61
2021/10/25 00:30:30;;;;;;;15.85;14.45;;;;;;;5.80;91.96;99282.94;5016293;27;102725;-61
2021/10/25 00:33:00;;;;;;;18.60;16.90;;;;;;;5.62;92.66;99280.25;5031792;27;102998;-60
2021/10/25 00:35:30;;;;;;;17.63;15.93;;;;;;;5.77;91.58;99276.97;5049334;27;104156;-61
2021/10/25 00:38:00;;;;;;;17.65;16.05;;;;;;;5.64;90.46;99281.06;5048636;27;103197;-61
2021/10/25 00:40:28;;;;;;;20.13;18.10;;;;;;;5.20;92.60;99281.16;5028889;27;102811;-61
2021/10/25 00:42:57;;;;;;;17.48;15.88;;;;;;;5.45;94.11;99280.09;5034796;27;103385;-63
2021/10/25 00:45:27;;;;;;;15.67;14.30;;;;;;;5.93;91.52;99285.88;5030258;27;103233;-60
2021/10/25 00:47:57;;;;;;;18.02;16.23;;;;;;;5.67;90.22;99276.50;5021172;27;103206;-61
2021/10/25 00:50:27;;;;;;;15.60;14.10;;;;;;;5.92;91.43;99278.97;5042282;27;102664;-60
2021/10/25 00:53:00;;;;;;;18.30;16.50;;;;;;;5.75;90.81;99273.56;5050019;27;103026;-60
2021/10/25 00:55:31;;;;;;;14.15;12.88;;;;;;;6.15;90.46;99273.50;5020640;27;103236;-61
2021/10/25 00:58:00;;;;;;;18.50;16.73;;;;;;;5.82;91.54;99275.84;5042594;27;103133;-60
2021/10/25 01:00:29;;;;;;;15.15;13.75;;;;;;;6.23;89.55;99274.00;5020876;27;103015;-61
2021/10/25 01:02:58;;;;;;;14.18;12.88;;;;;;;6.41;88.71;99281.03;5041402;27;102752;-60
2021/10/25 01:05:30;;;;;;;17.23;15.50;;;;;;;6.09;88.90;99271.16;5032074;27;103298;-61
2021/10/25 01:08:02;;;;;;;17.75;16.05;;;;;;;5.92;88.86;99273.72;5041315;27;103302;-60
2021/10/25 01:10:31;;;;;;;18.20;16.60;;;;;;;5.73;90.52;99272.75;5019704;27;103319;-61
2021/10/25 01:12:59;;;;;;;17.85;16.25;;;;;;;5.90;90.03;99274.66;5032998;27;103112;-60
2021/10/25 01:15:29;;;;;;;16.80;15.05;;;;;;;5.98;90.02;99270.78;5023096;27;103592;-61
2021/10/25 01:18:00;;;;;;;18.20;16.40;;;;;;;5.71;89.83;99270.22;5042104;27;103097;-60
2021/10/25 01:20:32;;;;;;;18.33;16.63;;;;;;;5.59;92.93;99269.88;5038273;27;102739;-61
2021/10/25 01:23:01;;;;;;;17.25;15.55;;;;;;;5.68;91.38;99269.50;5036197;27;103906;-61
2021/10/25 01:25:30;;;;;;;18.77;17.02;;;;;;;5.69;94.04;99263.34;5047691;27;104205;-61
2021/10/25 01:27:59;;;;;;;17.67;15.98;;;;;;;5.77;92.02;99258.59;5030728;27;103525;-61
2021/10/25 01:30:28;;;;;;;14.00;12.68;;;;;;;6.30;89.86;99257.06;5036657;27;102718;-61
2021/10/25 01:32:57;;;;;;;12.07;10.93;;;;;;;6.65;87.16;99251.94;5023832;27;102868;-61
2021/10/25 01:35:26;;;;;;;13.00;11.80;;;;;;;6.58;82.98;99247.91;5029601;27;103618;-61
2021/10/25 01:37:57;;;;;;;10.50;9.57;;;;;;;6.67;82.37;99250.09;5038185;27;103186;-61
2021/10/25 01:40:26;;;;;;;9.88;8.98;;;;;;;6.84;81.48;99258.00;5021946;27;103013;-61
2021/10/25 01:42:55;;;;;;;12.05;10.88;;;;;;;6.52;81.34;99256.06;5019217;27;103111;-63
2021/10/25 01:45:23;;;;;;;13.50;12.20;;;;;;;6.32;83.30;99260.47;5046597;27;103201;-61
2021/10/25 01:47:54;;;;;;;16.88;15.27;;;;;;;5.79;86.49;99248.91;5033234;27;103196;-60
2021/10/25 01:50:23;;;;;;;15.50;14.10;;;;;;;5.84;87.60;99258.25;5014781;27;102808;-62
2021/10/25 01:52:55;;;;;;;14.27;12.98;;;;;;;5.79;88.66;99254.13;5045974;27;103017;-62
2021/10/25 01:55:24;;;;;;;14.02;12.82;;;;;;;5.95;87.25;99255.19;5037263;27;104094;-62
2021/10/25 01:57:52;;;;;;;14.93;13.52;;;;;;;6.03;86.17;99242.59;5033150;27;103167;-62
2021/10/25 02:00:20;;;;;;;14.50;13.20;;;;;;;5.96;87.40;99249.03;5026329;27;102852;-62
2021/10/25 02:02:49;;;;;;;15.17;13.67;;;;;;;6.04;88.48;99251.28;5019100;27;103973;-62
2021/10/25 02:05:35;;;;;;;15.00;13.52;;;;;;;5.97;88.63;99248.13;5008111;27;107433;-62
2021/10/25 02:08:06;;;;;;;15.73;14.18;;;;;;;5.86;88.75;99245.13;5042062;27;102926;-62
2021/10/25 02:10:46;;;;;;;17.52;15.88;;;;;;;5.56;90.71;99251.66;5024889;27;102923;-62
2021/10/25 02:13:16;;;;;;;15.23;13.82;;;;;;;5.92;89.84;99244.88;5028635;27;103101;-62
2021/10/25 02:15:45;;;;;;;15.93;14.43;;;;;;;5.66;90.56;99243.34;5021181;27;103133;-62
2021/10/25 02:18:16;;;;;;;14.40;13.10;;;;;;;5.96;90.44;99237.69;5018934;27;103267;-62
2021/10/25 02:20:44;;;;;;;16.77;15.17;;;;;;;5.66;91.89;99237.25;5021613;27;103037;-62
2021/10/25 02:23:20;;;;;;;12.95;11.85;;;;;;;6.13;90.83;99241.25;5046706;27;103588;-62
2021/10/25 02:25:49;;;;;;;12.35;11.20;;;;;;;6.40;88.43;99236.47;5045325;27;103222;-62
2021/10/25 02:28:21;;;;;;;14.15;12.75;;;;;;;6.35;87.30;99244.59;5017191;27;104560;-62
2021/10/25 02:30:53;;;;;;;13.03;11.83;;;;;;;6.48;87.25;99228.28;5008760;27;103266;-62
2021/10/25 02:33:22;;;;;;;12.65;11.52;;;;;;;6.24;88.21;99230.25;5016606;27;105102;-62
2021/10/25 02:35:51;;;;;;;13.17;11.87;;;;;;;6.22;88.61;99235.59;5025612;27;102989;-62
2021/10/25 02:38:23;;;;;;;13.18;11.88;;;;;;;6.10;88.06;99228.28;5022797;27;103706;-62
2021/10/25 02:40:58;;;;;;;12.57;11.38;;;;;;;6.36;87.18;99229.69;5027951;27;102667;-62
2021/10/25 02:43:26;;;;;;;12.65;11.45;;;;;;;6.37;86.96;99221.72;5024969;27;102723;-63
2021/10/25 02:45:58;;;;;;;13.55;12.25;;;;;;;6.20;88.01;99213.78;5028852;27;102992;-62
2021/10/25 02:48:29;;;;;;;13.48;12.27;;;;;;;6.12;88.47;99215.94;5023300;27;103324;-62
2021/10/25 02:51:03;;;;;;;15.50;14.00;;;;;;;5.56;90.93;99210.59;5046540;27;102927;-62
2021/10/25 02:53:33;;;;;;;16.52;14.93;;;;;;;5.33;92.97;99207.28;5019524;27;104261;-62
2021/10/25 02:56:05;;;;;;;14.98;13.68;;;;;;;5.69;92.21;99203.91;5016100;27;104823;-62
2021/10/25 02:58:33;;;;;;;11.75;10.65;;;;;;;6.30;90.03;99209.84;5029898;27;103176;-62
2021/10/25 03:01:02;;;;;;;11.87;10.77;;;;;;;6.30;88.41;99199.34;5024011;27;103003;-62
2021/10/25 03:03:30;;;;;;;13.13;12.00;;;;;;;5.99;88.44;99209.56;5052381;27;103909;-62
2021/10/25 03:05:58;;;;;;;10.30;9.50;;;;;;;6.39;88.32;99209.41;5032129;27;103404;-62
2021/10/25 03:08:28;;;;;;;9.68;8.88;;;;;;;6.64;86.81;99209.09;5033424;27;104283;-63
2021/10/25 03:11:00;;;;;;;11.30;10.30;;;;;;;6.61;85.60;99203.13;5034056;27;103192;-62
2021/10/25 03:13:29;;;;;;;9.00;8.27;;;;;;;6.81;85.27;99211.75;5030354;27;104078;-62
2021/10/25 03:16:01;;;;;;;10.70;9.60;;;;;;;6.82;84.37;99212.59;5024657;27;105384;-62
2021/10/25 03:18:29;;;;;;;10.87;9.93;;;;;;;6.41;85.57;99204.94;5034335;27;103492;-62
2021/10/25 03:20:57;;;;;;;11.73;10.55;;;;;;;6.11;87.65;99211.63;5026916;27;102758;-62
2021/10/25 03:23:26;;;;;;;13.73;12.43;;;;;;;5.63;90.03;99216.41;5016489;27;104699;-62
2021/10/25 03:25:54;;;;;;;9.55;8.65;;;;;;;6.35;88.76;99213.09;5047046;27;103660;-62
2021/10/25 03:28:26;;;;;;;11.48;10.40;;;;;;;6.00;88.26;99211.25;5026680;27;103308;-62
2021/10/25 03:30:54;;;;;;;13.35;11.95;;;;;;;5.76;88.23;99207.94;5042243;27;102842;-62
2021/10/25 03:33:22;;;;;;;11.38;10.20;;;;;;;5.86;90.16;99213.66;5034604;27;103620;-62
2021/10/25 03:36:06;;;;;;;10.85;9.75;;;;;;;6.01;88.00;99212.94;5043406;27;103436;-62
2021/10/25 03:38:37;;;;;;;8.43;7.72;;;;;;;6.49;86.84;99204.56;5034388;27;106185;-62
2021/10/25 03:41:11;;;;;;;8.50;7.77;;;;;;;6.64;85.41;99200.34;5035865;27;102981;-62
2021/10/25 03:43:46;;;;;;;8.32;7.63;;;;;;;6.63;84.18;99209.13;5035814;27;102665;-62
2021/10/25 03:46:23;;;;;;;11.52;10.43;;;;;;;6.25;84.38;99206.59;5026553;27;105049;-62
2021/10/25 03:48:56;;;;;;;12.38;11.25;;;;;;;5.73;87.29;99213.31;5008519;27;103118;-67
2021/10/25 03:51:24;;;;;;;11.30;10.18;;;;;;;6.04;87.06;99212.81;5026756;27;102729;-63
2021/10/25 03:54:00;;;;;;;12.30;11.20;;;;;;;5.79;87.37;99210.41;5045754;27;104253;-63
2021/10/25 03:56:47;;;;;;;11.53;10.53;;;;;;;5.98;88.41;99215.72;5020994;27;103235;-63
2021/10/25 03:59:29;;;;;;;11.15;10.15;;;;;;;6.12;86.16;99208.06;5025316;27;104405;-63
2021/10/25 04:02:17;;;;;;;12.75;11.63;;;;;;;5.67;88.23;99207.50;5027889;27;103318;-63
2021/10/25 04:27:47;;;;;;;10.90;9.95;;;;;;;5.80;88.07;99213.91;5049958;27;103736;-65
2021/10/25 04:30:19;;;;;;;11.07;10.07;;;;;;;5.96;87.50;99207.06;5029936;27;103265;-65
2021/10/25 04:32:49;;;;;;;11.23;10.13;;;;;;;6.07;86.28;99207.41;5048181;27;103194;-65
2021/10/25 04:35:38;;;;;;;11.90;10.80;;;;;;;5.91;86.08;99208.19;5022726;27;103093;-65
2021/10/25 04:38:38;;;;;;;13.60;12.20;;;;;;;5.44;89.20;99205.03;4979739;27;103851;-65
2021/10/25 04:41:06;;;;;;;10.50;9.63;;;;;;;5.78;89.84;99210.50;5018414;27;103178;-65
2021/10/25 04:43:39;;;;;;;10.95;10.05;;;;;;;5.86;88.57;99205.78;5029334;27;103214;-65
2021/10/25 04:46:08;;;;;;;13.73;12.35;;;;;;;5.50;89.27;99210.03;5021632;27;102693;-65
2021/10/25 04:48:38;;;;;;;11.77;10.70;;;;;;;5.48;88.59;99214.47;5039722;27;102950;-65
2021/10/25 04:51:09;;;;;;;12.50;11.32;;;;;;;5.45;90.91;99215.44;5029730;27;104164;-65
2021/10/25 04:53:50;;;;;;;12.82;11.73;;;;;;;5.51;91.64;99216.94;5035648;27;103028;-65
2021/10/25 04:56:22;;;;;;;10.00;9.17;;;;;;;6.07;89.01;99212.66;5020238;27;103060;-65
2021/10/25 04:58:50;;;;;;;11.60;10.60;;;;;;;6.06;87.23;99210.13;5039058;27;102893;-65
2021/10/25 05:01:18;;;;;;;10.07;9.18;;;;;;;6.10;88.05;99207.28;5033816;27;103201;-65
2021/10/25 05:03:49;;;;;;;10.13;9.23;;;;;;;6.37;86.24;99216.47;5018145;27;103424;-65
2021/10/25 05:06:18;;;;;;;12.35;11.25;;;;;;;6.02;86.75;99205.94;5030241;27;103197;-65
2021/10/25 05:08:50;;;;;;;11.27;10.27;;;;;;;5.95;87.97;99207.16;5021509;27;103020;-65
2021/10/25 05:11:18;;;;;;;12.20;11.10;;;;;;;6.01;88.53;99206.84;5010948;27;103492;-65
2021/10/25 05:13:48;;;;;;;11.97;10.77;;;;;;;5.98;87.33;99217.50;5015674;27;103519;-64
2021/10/25 05:16:16;;;;;;;12.52;11.38;;;;;;;6.05;87.36;99222.38;5014924;27;103080;-65
2021/10/25 05:18:57;;;;;;;11.70;10.70;;;;;;;6.19;87.28;99212.13;5014141;27;102897;-65
2021/10/25 05:21:25;;;;;;;11.77;10.77;;;;;;;6.13;87.47;99216.78;5002287;27;106458;-65
2021/10/25 05:23:54;;;;;;;12.40;11.30;;;;;;;6.09;87.04;99216.06;5007476;27;103919;-64
2021/10/25 05:26:22;;;;;;;13.75;12.45;;;;;;;6.04;87.45;99212.81;5011725;27;103111;-65
2021/10/25 05:28:52;;;;;;;11.30;10.30;;;;;;;6.38;86.62;99210.31;5005731;27;104063;-65
2021/10/25 05:31:20;;;;;;;12.77;11.70;;;;;;;6.24;86.56;99218.00;5030598;27;103207;-65
2021/10/25 05:33:48;;;;;;;12.05;10.95;;;;;;;6.22;86.41;99204.09;5016020;27;103028;-65
2021/10/25 05:36:18;;;;;;;13.00;11.80;;;;;;;6.26;85.75;99203.00;5021293;27;103436;-65
2021/10/25 05:38:46;;;;;;;12.50;11.40;;;;;;;6.34;86.27;99200.88;5032094;27;102702;-65
2021/10/25 05:41:15;;;;;;;12.15;11.15;;;;;;;6.26;86.86;99197.78;5021507;27;103247;-65
2021/10/25 05:43:43;;;;;;;12.43;11.32;;;;;;;6.28;86.34;99195.09;5022804;27;103276;-65
2021/10/25 05:46:11;;;;;;;12.02;11.02;;;;;;;6.22;86.48;99184.88;5022544;27;102722;-65
2021/10/25 05:48:41;;;;;;;12.37;11.27;;;;;;;6.48;85.24;99191.53;5018656;27;102923;-65
2021/10/25 05:51:11;;;;;;;12.90;11.80;;;;;;;6.31;85.38;99192.31;5020925;27;103318;-65
2021/10/25 05:53:40;;;;;;;11.75;10.75;;;;;;;6.30;86.44;99191.47;5009882;27;105130;-64
2021/10/25 05:56:09;;;;;;;11.90;10.90;;;;;;;6.29;87.08;99189.75;5014529;27;103122;-65
2021/10/25 05:58:37;;;;;;;12.40;11.32;;;;;;;6.17;86.43;99198.22;5031485;27;103243;-65
2021/10/25 06:01:11;;;;;;;13.27;12.07;;;;;;;6.29;85.68;99197.63;5018374;27;103247;-65
2021/10/25 06:04:04;;;;;;;12.18;11.07;;;;;;;6.46;85.16;99196.81;5040696;27;103151;-65
2021/10/25 06:06:32;;;;;;;12.07;10.98;;;;;;;6.57;84.89;99191.91;5022878;27;103126;-65
2021/10/25 06:09:04;;;;;;;13.15;12.02;;;;;;;6.33;85.01;99188.69;5019233;27;102911;-65
2021/10/25 06:11:37;;;;;;;11.60;10.60;;;;;;;6.60;84.68;99193.53;5022080;27;103196;-65
2021/10/25 06:14:07;;;;;;;11.45;10.32;;;;;;;6.66;84.62;99201.13;5040998;27;103332;-65
2021/10/25 06:16:41;;;;;;;13.30;12.07;;;;;;;6.55;84.52;99200.78;5018891;27;102894;-65
2021/10/25 06:19:11;;;;;;;11.80;10.67;;;;;;;6.75;83.98;99195.41;5022986;27;102802;-65
2021/10/25 06:21:39;;;;;;;9.73;8.88;;;;;;;6.91;83.09;99196.34;5011370;27;104446;-65
2021/10/25 06:24:14;;;;;;;10.43;9.52;;;;;;;7.03;82.36;99206.25;5007777;27;105243;-65
2021/10/25 06:27:00;;;;;;;9.40;8.63;;;;;;;7.06;81.56;99206.13;5016168;27;103004;-65
2021/10/25 06:29:28;;;;;;;10.70;9.80;;;;;;;7.08;81.89;99206.03;5033371;27;102866;-65
2021/10/25 06:31:57;;;;;;;11.23;10.23;;;;;;;7.09;81.32;99213.00;5025321;27;104619;-64
2021/10/25 06:34:33;;;;;;;10.43;9.52;;;;;;;7.09;81.84;99213.84;5011634;27;103548;-64
2021/10/25 06:37:23;;;;;;;11.18;10.07;;;;;;;7.06;80.86;99211.38;5037240;27;102633;-64
2021/10/25 06:40:05;;;;;;;11.05;10.15;;;;;;;6.87;82.43;99215.84;5022234;27;104244;-63
2021/10/25 06:42:34;;;;;;;12.75;11.55;;;;;;;6.88;82.18;99215.75;5024055;27;103197;-65
2021/10/25 06:45:15;;;;;;;10.17;9.17;;;;;;;7.04;82.04;99229.00;5009381;27;103188;-65
2021/10/25 06:47:46;;;;;;;9.85;8.95;;;;;;;7.12;81.31;99234.72;5034354;27;102987;-64
2021/10/25 06:50:19;;;;;;;10.43;9.52;;;;;;;7.19;80.88;99233.47;5040751;27;103736;-64
2021/10/25 06:52:50;;;;;;;10.35;9.45;;;;;;;7.15;81.71;99231.94;5012116;27;103090;-65
2021/10/25 06:55:22;;;;;;;12.38;11.25;;;;;;;7.19;81.15;99230.84;5009869;27;103309;-65
2021/10/25 06:57:58;;;;;;;12.43;11.35;;;;;;;7.54;80.30;99229.91;5019140;27;104061;-65
2021/10/25 07:00:30;;;;;;;11.45;10.35;;;;;;;7.97;80.31;99238.19;5023103;27;104158;-65
2021/10/25 07:02:59;;;;;;;11.70;10.50;;;;;;;7.80;79.05;99238.22;5017841;27;106037;-65
2021/10/25 07:05:33;;;;;;;12.20;11.10;;;;;;;7.61;80.50;99242.75;5020382;27;103272;-65
2021/10/25 07:08:04;;;;;;;14.25;12.25;;;;;;;7.31;80.54;99232.88;5029758;27;102660;-65
2021/10/25 07:10:37;;;;;;;12.47;11.27;;;;;;;7.11;83.60;99235.63;5003187;27;104253;-64
2021/10/25 07:13:19;;;;;;;11.85;10.85;;;;;;;7.27;83.03;99241.00;5031410;27;103508;-64
2021/10/25 07:15:50;;;;;;;10.88;9.93;;;;;;;7.59;81.39;99245.44;5013619;27;104246;-65
2021/10/25 07:18:23;;;;;;;10.40;9.50;;;;;;;7.73;80.46;99256.09;5015653;27;103083;-65
2021/10/25 08:04:23;;;;;;;10.55;9.65;;;;;;;10.57;73.05;99228.09;5022530;27;102898;-65
2021/10/25 08:06:59;;;;;;;11.93;10.73;;;;;;;10.30;72.01;99224.56;5029492;27;103163;-65
2021/10/25 08:09:48;;;;;;;10.05;9.13;;;;;;;10.69;72.88;99227.31;5021255;27;104284;-66
2021/10/25 08:12:20;;;;;;;11.37;10.20;;;;;;;11.19;70.54;99220.50;5010870;27;105261;-65
2021/10/25 08:14:52;;;;;;;11.38;9.77;;;;;;;11.15;68.87;99217.19;5026778;27;103079;-65
2021/10/25 08:17:25;;;;;;;12.35;9.73;;;;;;;10.44;70.91;99206.88;5022103;27;103910;-65
2021/10/25 08:19:53;;;;;;;9.80;8.90;;;;;;;10.59;70.72;99207.69;5027291;27;102781;-66
2021/10/25 08:22:21;;;;;;;11.13;9.13;;;;;;;10.76;69.13;99207.44;5018107;27;103203;-66
2021/10/25 08:24:51;;;;;;;10.45;9.40;;;;;;;10.87;69.69;99210.25;5020242;27;103249;-65
2021/10/25 08:27:26;;;;;;;9.60;8.70;;;;;;;10.86;70.04;99213.81;5026873;27;102835;-65
2021/10/25 08:29:54;;;;;;;9.43;8.63;;;;;;;10.66;69.71;99211.66;5018843;27;103234;-65
2021/10/25 08:32:40;;;;;;;9.20;8.40;;;;;;;10.76;70.17;99207.44;5033134;27;103354;-65
2021/10/25 08:41:07;;;;;;;10.65;8.98;;;;;;;10.24;71.05;99204.66;5021208;27;103252;-65
2021/10/25 08:43:37;;;;;;;9.45;8.52;;;;;;;10.77;69.98;99203.88;5022500;27;103215;-65
2021/10/25 08:46:09;;;;;;;8.63;7.82;;;;;;;11.07;69.17;99204.50;5028212;27;103017;-66
2021/10/25 08:48:43;;;;;;;9.23;8.37;;;;;;;10.99;69.69;99204.16;5018063;27;102952;-66
2021/10/25 08:51:11;;;;;;;10.27;8.90;;;;;;;11.10;68.62;99199.94;5010520;27;104343;-66
2021/10/25 08:53:39;;;;;;;10.50;8.80;;;;;;;10.99;69.08;99208.59;5019888;27;103273;-66
2021/10/25 08:56:09;;;;;;;10.80;9.02;;;;;;;10.66;69.81;99203.72;5042949;27;102633;-66
2021/10/25 08:58:54;;;;;;;8.50;7.72;;;;;;;11.36;68.29;99204.34;5029909;27;104710;-66
2021/10/25 09:01:26;;;;;;;10.15;8.73;;;;;;;11.34;68.42;99199.13;5029256;27;103272;-65
2021/10/25 09:04:31;;;;;;;8.93;8.13;;;;;;;11.57;68.24;99210.81;5033751;27;102854;-65
2021/10/25 09:07:14;;;;;;;9.20;8.30;;;;;;;11.49;68.40;99205.19;5026387;27;103099;-65
2021/10/25 09:09:46;;;;;;;10.55;8.73;;;;;;;11.27;69.01;99202.31;5046338;27;102824;-65
2021/10/25 09:12:16;;;;;;;9.47;8.43;;;;;;;11.30;68.65;99202.09;5026809;27;103368;-66
2021/10/25 09:14:50;;;;;;;8.93;8.13;;;;;;;11.63;66.80;99194.50;5026945;27;105042;-66
2021/10/25 09:17:20;;;;;;;10.60;8.45;;;;;;;11.71;67.86;99196.66;5013244;27;102648;-66
2021/10/25 09:20:11;;;;;;;9.20;7.97;;;;;;;11.89;67.07;99198.03;5049320;27;102830;-65
2021/10/25 09:22:39;;;;;;;9.73;8.27;;;;;;;11.74;67.19;99191.16;5023675;27;104100;-66
2021/10/25 09:25:09;;;;;;;10.65;9.18;;;;;;;11.71;66.61;99186.91;5022638;27;104964;-65
2021/10/25 09:27:47;;;;;;;11.30;8.70;;;;;;;11.64;67.57;99191.78;5027988;27;102690;-66
2021/10/25 09:30:40;;;;;;;9.90;8.90;;;;;;;11.46;67.67;99187.72;5050142;27;103112;-65
2021/10/25 09:33:19;;;;;;;9.55;8.48;;;;;;;12.07;66.75;99181.69;5030799;27;104196;-65
2021/10/25 09:36:01;;;;;;;10.07;9.10;;;;;;;11.44;67.52;99183.50;5050394;27;103178;-65
2021/10/25 09:38:48;;;;;;;10.23;8.32;;;;;;;11.89;67.05;99177.72;5038013;27;104192;-65
2021/10/25 09:50:08;;;;;;;8.20;7.40;;;;;;;12.98;63.81;99176.81;5027478;27;102988;-66
2021/10/25 09:52:42;;;;;;;11.53;8.90;;;;;;;12.77;64.05;99166.84;5024047;27;103470;-66
2021/10/25 09:55:17;;;;;;;9.30;7.90;;;;;;;13.10;63.98;99173.28;5028343;27;103296;-66
2021/10/25 09:57:54;;;;;;;9.57;7.77;;;;;;;13.52;62.73;99166.53;5014032;27;103634;-65
2021/10/25 10:00:38;;;;;;;8.70;7.80;;;;;;;14.39;60.65;99175.53;5031313;27;102820;-65
2021/10/25 10:03:11;;;;;;;8.30;7.50;;;;;;;14.56;60.86;99165.34;5018476;27;104468;-64
2021/10/25 10:05:55;;;;;;;8.60;7.03;;;;;;;14.68;60.18;99165.16;5003190;27;103782;-65
2021/10/25 10:08:29;;;;;;;9.03;7.50;;;;;;;14.68;59.39;99164.34;5019225;27;104635;-65
2021/10/25 10:11:01;;;;;;;7.97;7.13;;;;;;;14.39;60.04;99159.56;5014893;27;102693;-65
2021/10/25 10:13:31;;;;;;;7.65;6.95;;;;;;;14.65;59.89;99159.28;5018054;27;102797;-65
2021/10/25 10:16:32;;;;;;;9.55;8.07;;;;;;;14.04;60.68;99147.34;5032489;27;103257;-65
2021/10/25 10:19:05;;;;;;;10.27;7.83;;;;;;;14.32;59.53;99149.53;5018999;27;103649;-66
2021/10/25 10:21:58;;;;;;;8.27;7.47;;;;;;;14.49;60.17;99149.03;5014666;27;102798;-63
2021/10/25 10:24:34;;;;;;;9.13;7.90;;;;;;;14.89;58.95;99147.47;5019594;27;102748;-66
2021/10/25 10:27:07;;;;;;;9.32;8.27;;;;;;;14.09;59.93;99156.66;5036587;27;103341;-64
2021/10/25 10:29:42;;;;;;;8.68;7.38;;;;;;;14.20;59.55;99155.81;5020641;27;103257;-63
2021/10/25 10:32:31;;;;;;;8.00;7.20;;;;;;;14.75;57.15;99144.25;4997590;27;102702;-64
2021/10/25 10:35:19;;;;;;;8.30;6.90;;;;;;;15.05;57.32;99141.69;5044841;27;102711;-64
2021/10/25 10:38:06;;;;;;;6.70;6.00;;;;;;;15.56;55.67;99136.47;5043487;27;103881;-64
2021/10/25 10:40:52;;;;;;;8.50;6.80;;;;;;;15.11;56.56;99141.19;5022520;27;105184;-64
2021/10/25 10:43:39;;;;;;;6.80;6.10;;;;;;;15.19;56.38;99138.72;5033101;27;102621;-64
2021/10/25 10:46:16;;;;;;;8.02;6.57;;;;;;;15.33;55.37;99135.72;5020378;27;103299;-64
2021/10/25 10:48:55;;;;;;;7.30;6.10;;;;;;;16.04;54.96;99134.03;5040553;27;103037;-64
2021/10/25 10:51:29;;;;;;;8.60;6.15;;;;;;;16.06;54.12;99140.06;5029628;27;103111;-65
2021/10/25 10:54:07;;;;;;;9.32;6.30;;;;;;;16.61;53.43;99136.91;5041858;27;102701;-64
2021/10/25 10:56:41;;;;;;;7.97;6.60;;;;;;;16.54;53.60;99135.75;5035336;27;103239;-66
2021/10/25 10:59:30;;;;;;;7.05;6.13;;;;;;;16.09;53.05;99129.13;5030490;27;103699;-66
2021/10/25 11:01:59;;;;;;;10.15;5.72;;;;;;;15.54;54.43;99133.94;5049181;27;103370;-66
2021/10/25 11:04:33;;;;;;;6.60;5.90;;;;;;;16.39;52.89;99130.94;5041413;27;102587;-66
2021/10/25 11:07:02;;;;;;;8.43;5.70;;;;;;;15.98;53.24;99131.91;5039700;27;102707;-66
2021/10/25 11:09:33;;;;;;;7.97;5.60;;;;;;;16.09;53.64;99129.13;5044826;27;104469;-66
2021/10/25 11:12:22;;;;;;;8.60;5.45;;;;;;;15.08;54.75;99125.47;5051726;27;103279;-66
2021/10/25 11:14:50;;;;;;;5.60;5.07;;;;;;;15.08;54.69;99122.81;5044516;27;103007;-67
2021/10/25 11:17:22;;;;;;;6.10;5.50;;;;;;;15.37;53.97;99120.34;5050398;27;103915;-66
2021/10/25 11:19:51;;;;;;;6.97;5.50;;;;;;;16.54;52.42;99111.75;5047191;27;103973;-66
2021/10/25 11:22:33;;;;;;;8.50;5.38;;;;;;;17.10;50.31;99127.06;5027056;27;103187;-66
2021/10/25 11:25:03;;;;;;;5.70;5.10;;;;;;;17.14;50.16;99109.78;5043261;27;102596;-67
2021/10/25 11:27:35;;;;;;;5.20;4.70;;;;;;;17.42;49.19;99108.91;5046956;27;102870;-66
2021/10/25 11:30:06;;;;;;;5.82;4.68;;;;;;;17.38;49.25;99105.69;5044249;27;103388;-66
2021/10/25 11:32:36;;;;;;;5.80;5.07;;;;;;;17.71;47.99;99103.53;5043637;27;103393;-66
2021/10/25 11:35:07;;;;;;;4.50;4.10;;;;;;;17.87;47.58;99099.25;5043371;27;102651;-66
2021/10/25 11:37:35;;;;;;;4.63;4.05;;;;;;;17.96;47.34;99095.66;5027768;27;102674;-66
2021/10/25 11:40:07;;;;;;;4.47;3.80;;;;;;;18.06;47.96;99084.09;5044724;27;103362;-66
2021/10/25 11:42:39;;;;;;;5.25;3.80;;;;;;;18.38;46.81;99089.81;5036038;27;103128;-67
2021/10/25 11:45:12;;;;;;;4.80;3.78;;;;;;;18.65;46.59;99087.13;5045746;27;102691;-67
2021/10/25 11:47:41;;;;;;;4.57;3.65;;;;;;;18.06;47.29;99084.09;5025375;27;103834;-67
2021/10/25 11:50:13;;;;;;;4.80;3.97;;;;;;;18.52;46.17;99084.00;5049113;27;103216;-67
2021/10/25 11:52:49;;;;;;;4.30;3.90;;;;;;;18.48;46.70;99082.59;5045834;27;103130;-67
2021/10/25 11:55:19;;;;;;;5.72;4.00;;;;;;;18.43;45.25;99079.50;5043532;27;102616;-67
2021/10/25 11:57:49;;;;;;;4.82;3.58;;;;;;;18.38;46.27;99077.31;5042808;27;103984;-67
2021/10/25 12:00:20;;;;;;;4.22;3.83;;;;;;;18.66;46.46;99074.59;5030956;27;103268;-67
2021/10/25 12:02:55;;;;;;;4.60;3.60;;;;;;;19.55;44.89;99068.13;5026323;27;103179;-67
2021/10/25 12:05:25;;;;;;;6.78;3.70;;;;;;;18.84;45.93;99070.91;5023440;27;102739;-67
2021/10/25 12:07:56;;;;;;;6.47;4.18;;;;;;;18.76;46.92;99067.31;5049515;27;103877;-68
2021/10/25 12:10:26;;;;;;;6.22;4.20;;;;;;;18.81;46.90;99065.84;5049727;27;104252;-67
2021/10/25 12:12:58;;;;;;;6.10;3.77;;;;;;;19.30;46.55;99055.53;5014787;27;103196;-67
2021/10/25 12:15:28;;;;;;;7.13;4.40;;;;;;;19.26;45.98;99048.78;5047303;27;102971;-67
2021/10/25 12:17:58;;;;;;;5.63;4.30;;;;;;;18.77;45.93;99050.28;5045385;27;102739;-67
2021/10/25 12:20:28;;;;;;;4.70;4.00;;;;;;;18.98;46.64;99048.94;5039860;27;104022;-67
2021/10/25 12:23:19;;;;;;;4.15;3.78;;;;;;;19.16;45.96;99040.88;5043615;27;103182;-67
2021/10/25 12:25:54;;;;;;;4.95;3.83;;;;;;;19.66;45.79;99033.00;5024624;27;102803;-68
2021/10/25 12:28:27;;;;;;;5.85;4.25;;;;;;;18.72;47.23;99031.16;5048754;27;103087;-67
2021/10/25 12:31:07;;;;;;;4.57;3.80;;;;;;;19.48;45.42;99021.53;5047983;27;103876;-67
2021/10/25 12:33:37;;;;;;;5.00;3.40;;;;;;;19.98;45.23;99019.75;5049393;27;103190;-67
2021/10/25 12:36:15;;;;;;;5.05;4.07;;;;;;;19.07;46.00;99018.56;5028462;27;102886;-67
2021/10/25 12:38:47;;;;;;;4.53;3.50;;;;;;;20.24;44.59;99008.91;5027345;27;103002;-67
2021/10/25 12:41:15;;;;;;;4.03;3.30;;;;;;;20.48;45.44;99009.00;5029233;27;103248;-67
2021/10/25 12:43:46;;;;;;;4.88;3.65;;;;;;;19.92;45.27;99008.81;5039352;27;103279;-67
2021/10/25 12:46:17;;;;;;;4.82;3.65;;;;;;;19.69;44.67;99013.94;5033457;27;103394;-67
2021/10/25 12:48:47;;;;;;;4.20;3.47;;;;;;;19.93;45.24;99011.31;5032181;27;102969;-68
2021/10/25 12:51:16;;;;;;;5.28;3.53;;;;;;;19.74;44.92;99006.22;5027188;27;103303;-68
2021/10/25 12:53:47;;;;;;;5.20;3.30;;;;;;;19.62;45.71;99007.53;5046665;27;103200;-68
2021/10/25 12:56:24;;;;;;;4.75;3.53;;;;;;;19.88;45.74;99004.78;5024918;27;102574;-68
2021/10/25 12:59:00;;;;;;;4.20;3.20;;;;;;;20.51;44.52;99002.44;5042200;27;102793;-68
2021/10/25 13:01:29;;;;;;;4.70;3.23;;;;;;;20.50;44.99;99000.75;5026667;27;103768;-68
2021/10/25 13:03:58;;;;;;;3.57;3.20;;;;;;;20.37;43.58;98987.84;5026723;27;103231;-68
2021/10/25 13:06:30;;;;;;;4.37;3.37;;;;;;;19.96;45.08;99000.28;5039421;27;102877;-67
2021/10/25 13:08:59;;;;;;;5.00;3.40;;;;;;;20.63;44.61;99001.13;5045875;27;102685;-68